Time;durP1;ratioP1;P1;durP2;ratioP2;P2;SDS_P1;SDS_P2;PMS_P1;PMS_P2;Temp;Humidity;BMP_temperature;BMP_pressure;BME280_temperature;BME280_humidity;BME280_pressure;Samples;Min_cycle;Max_cycle;Signal;HPM_P1;HPM_P2
2024/01/21 00:01:44;;;;;;;8.50;6.90;;;;;;;-6.71;100.00;97214.97;7404562;19;20371;-91
2024/01/21 00:04:28;;;;;;;12.57;7.67;;;;;;;-7.92;100.00;97031.00;7404541;19;20371;-90
2024/01/21 00:07:12;;;;;;;11.67;9.17;;;;;;;-7.60;100.00;97093.78;7404069;19;20369;-90
2024/01/21 00:09:56;;;;;;;11.97;8.50;;;;;;;-6.62;100.00;97239.47;7402509;19;20379;-90
2024/01/21 00:12:39;;;;;;;9.97;8.33;;;;;;;-7.89;100.00;97050.28;7403506;19;20427;-91
2024/01/21 00:15:23;;;;;;;14.20;9.27;;;;;;;-6.92;100.00;97200.25;7403851;19;20884;-90
2024/01/21 00:18:06;;;;;;;10.23;7.50;;;;;;;-7.08;100.00;97169.72;7403929;19;20853;-90
2024/01/21 00:20:50;;;;;;;14.50;8.47;;;;;;;-6.95;100.00;97161.53;7402335;19;20905;-91
2024/01/21 00:23:34;;;;;;;11.30;8.83;;;;;;;-7.12;100.00;97148.03;7401936;19;20400;-90
2024/01/21 00:26:17;;;;;;;8.90;7.13;;;;;;;-7.36;100.00;97115.03;7404369;19;20381;-90
2024/01/21 00:29:01;;;;;;;10.63;9.60;;;;;;;-7.07;100.00;97161.09;7403396;19;20664;-89
2024/01/21 00:31:44;;;;;;;11.70;8.37;;;;;;;-7.51;100.00;97092.81;7403920;19;20388;-90
2024/01/21 00:34:28;;;;;;;13.20;9.27;;;;;;;-7.27;100.00;97117.34;7403032;19;20380;-89
2024/01/21 00:37:11;;;;;;;14.50;9.63;;;;;;;-8.15;100.00;97022.50;7403766;19;20365;-92
2024/01/21 00:39:55;;;;;;;12.97;10.63;;;;;;;-7.86;100.00;97070.31;7403279;19;20364;-90
2024/01/21 00:42:39;;;;;;;10.47;8.80;;;;;;;-8.08;100.00;97098.03;7402597;19;20429;-89
2024/01/21 00:45:23;;;;;;;10.10;6.77;;;;;;;-7.91;100.00;97096.28;7402537;19;20436;-90
2024/01/21 00:48:07;;;;;;;12.37;8.70;;;;;;;-8.13;100.00;97086.75;7403549;19;20369;-89
2024/01/21 00:50:51;;;;;;;11.50;7.00;;;;;;;-9.10;100.00;96988.47;7400414;19;20389;-90
2024/01/21 00:53:34;;;;;;;7.63;6.80;;;;;;;-8.45;100.00;97065.50;7401144;19;20396;-90
2024/01/21 00:56:18;;;;;;;13.50;8.27;;;;;;;-8.17;100.00;97088.06;7402407;19;20907;-90
2024/01/21 00:59:02;;;;;;;6.93;6.23;;;;;;;-7.16;100.00;97218.19;7402049;19;20856;-90
2024/01/21 01:01:46;;;;;;;15.13;8.10;;;;;;;-7.67;100.00;97131.06;7401765;19;20372;-90
2024/01/21 01:04:30;;;;;;;9.77;8.77;;;;;;;-8.33;100.00;97000.56;7402472;19;20886;-90
2024/01/21 01:07:13;;;;;;;11.37;8.30;;;;;;;-7.49;100.00;97158.91;7402815;19;20395;-90
2024/01/21 01:09:58;;;;;;;11.07;8.13;;;;;;;-8.56;100.00;96978.53;7400826;19;20380;-91
2024/01/21 01:12:41;;;;;;;11.10;8.33;;;;;;;-8.18;100.00;97021.09;7401308;19;20404;-90
2024/01/21 01:15:25;;;;;;;11.10;8.20;;;;;;;-7.38;100.00;97193.41;7401935;19;20388;-91
2024/01/21 01:18:09;;;;;;;7.63;6.90;;;;;;;-8.14;100.00;97047.00;7401818;19;20390;-90
2024/01/21 01:20:53;;;;;;;10.20;7.27;;;;;;;-7.40;100.00;97203.78;7400346;19;20412;-91
2024/01/21 01:23:36;;;;;;;10.37;8.90;;;;;;;-8.31;100.00;97061.50;7399900;19;20409;-90
2024/01/21 01:26:20;;;;;;;9.73;7.67;;;;;;;-7.71;100.00;97118.81;7401764;19;20369;-90
2024/01/21 01:29:04;;;;;;;11.33;9.07;;;;;;;-7.94;100.00;97065.22;7401017;19;20380;-89
2024/01/21 01:31:47;;;;;;;12.70;9.70;;;;;;;-7.92;100.00;97060.75;7402796;19;20372;-90
2024/01/21 01:34:31;;;;;;;12.67;7.90;;;;;;;-8.23;100.00;97013.13;7401270;19;20369;-90
2024/01/21 01:37:14;;;;;;;11.73;9.33;;;;;;;-7.23;100.00;97161.16;7401332;19;20687;-91
2024/01/21 01:39:58;;;;;;;9.43;7.00;;;;;;;-8.71;100.00;96941.09;7400993;19;20396;-90
2024/01/21 01:42:42;;;;;;;9.33;7.90;;;;;;;-7.92;100.00;97069.19;7400619;19;20439;-91
2024/01/21 01:45:26;;;;;;;11.03;7.47;;;;;;;-8.45;100.00;96996.81;7401065;19;20377;-90
2024/01/21 01:48:09;;;;;;;14.33;7.57;;;;;;;-7.52;100.00;97134.53;7401177;19;20703;-90
2024/01/21 01:50:53;;;;;;;10.87;7.80;;;;;;;-7.27;100.00;97167.53;7399073;19;20381;-91
2024/01/21 01:53:37;;;;;;;15.40;9.80;;;;;;;-7.73;100.00;97093.50;7399683;19;20429;-91
2024/01/21 01:56:22;;;;;;;9.10;7.30;;;;;;;-8.10;100.00;97084.69;7401027;19;20412;-91
2024/01/21 01:59:09;;;;;;;8.03;6.93;;;;;;;-8.67;100.00;96974.56;7400437;19;20849;-90
2024/01/21 02:01:53;;;;;;;9.30;7.77;;;;;;;-8.34;100.00;97057.50;7400218;19;20862;-90
2024/01/21 02:04:36;;;;;;;12.57;7.90;;;;;;;-8.56;100.00;97014.16;7400528;19;20360;-91
2024/01/21 02:07:20;;;;;;;11.20;7.13;;;;;;;-8.81;100.00;96993.84;7400349;19;20388;-91
2024/01/21 02:10:05;;;;;;;10.97;8.37;;;;;;;-7.56;100.00;97157.94;7398897;19;20948;-89
2024/01/21 02:12:51;;;;;;;12.40;9.20;;;;;;;-7.44;100.00;97146.44;7397575;19;20485;-90
2024/01/21 02:15:35;;;;;;;12.27;7.57;;;;;;;-10.00;100.00;96754.06;7400005;19;20391;-91
2024/01/21 02:18:19;;;;;;;11.33;6.97;;;;;;;-7.83;100.00;97091.16;7399994;19;20384;-91
2024/01/21 02:21:03;;;;;;;8.93;6.77;;;;;;;-9.18;100.00;96913.00;7399488;19;20771;-89
2024/01/21 02:23:47;;;;;;;22.40;8.30;;;;;;;-8.51;100.00;97039.88;7399040;19;20736;-90
2024/01/21 02:26:31;;;;;;;8.77;7.43;;;;;;;-8.57;100.00;97026.06;7399898;19;20668;-91
2024/01/21 02:29:15;;;;;;;11.50;8.00;;;;;;;-8.65;100.00;97006.53;7399160;19;20385;-91
2024/01/21 02:31:59;;;;;;;9.70;7.60;;;;;;;-8.85;100.00;96954.47;7400202;19;20379;-91
2024/01/21 02:34:43;;;;;;;9.60;8.60;;;;;;;-9.50;100.00;96849.53;7400221;19;20390;-90
2024/01/21 02:37:26;;;;;;;10.83;8.10;;;;;;;-7.89;100.00;97099.44;7399992;19;20377;-89
2024/01/21 02:40:12;;;;;;;15.00;8.40;;;;;;;-8.90;100.00;96966.03;7399965;19;20388;-91
2024/01/21 02:42:56;;;;;;;11.10;8.20;;;;;;;-7.65;100.00;97154.66;7398620;19;20412;-90
2024/01/21 02:45:39;;;;;;;14.83;7.40;;;;;;;-8.49;100.00;96987.09;7399453;19;20413;-91
2024/01/21 02:48:23;;;;;;;8.90;7.37;;;;;;;-8.48;100.00;96991.22;7399053;19;20377;-90
2024/01/21 02:51:26;;;;;;;13.13;7.70;;;;;;;-7.61;100.00;97148.25;7399098;19;20737;-90
2024/01/21 02:54:10;;;;;;;8.83;8.00;;;;;;;-7.87;100.00;97096.75;7397132;19;20412;-90
2024/01/21 02:56:54;;;;;;;13.57;9.40;;;;;;;-7.89;100.00;97091.03;7398924;19;20369;-90
2024/01/21 02:59:38;;;;;;;8.57;7.53;;;;;;;-8.60;100.00;97017.94;7398971;19;20432;-91
2024/01/21 03:02:22;;;;;;;11.60;8.80;;;;;;;-8.67;100.00;96997.47;7398161;19;20910;-91
2024/01/21 03:05:07;;;;;;;19.40;14.10;;;;;;;-8.37;100.00;97051.97;7398655;19;20384;-89
2024/01/21 03:07:51;;;;;;;13.47;10.03;;;;;;;-7.72;100.00;97140.94;7399114;19;20465;-90
2024/01/21 03:10:35;;;;;;;16.77;9.70;;;;;;;-8.42;100.00;97038.94;7397129;19;20381;-91
2024/01/21 03:13:18;;;;;;;8.33;7.30;;;;;;;-8.25;100.00;97085.50;7397456;19;20416;-91
2024/01/21 03:16:02;;;;;;;14.43;7.37;;;;;;;-9.32;100.00;96914.44;7397849;19;20368;-90
2024/01/21 03:18:46;;;;;;;10.40;7.77;;;;;;;-8.05;100.00;97114.78;7397783;19;20468;-92
2024/01/21 03:21:30;;;;;;;10.67;9.50;;;;;;;-8.16;100.00;97128.63;7396740;19;20408;-90
2024/01/21 03:24:14;;;;;;;10.90;7.50;;;;;;;-8.27;100.00;97061.97;7396868;19;20401;-90
2024/01/21 03:26:57;;;;;;;10.43;8.97;;;;;;;-8.39;100.00;97058.97;7405813;19;20393;-91
2024/01/21 03:29:41;;;;;;;10.23;7.20;;;;;;;-9.54;100.00;96915.84;7404644;19;20389;-92
2024/01/21 03:32:25;;;;;;;11.17;8.90;;;;;;;-9.24;100.00;96929.69;7405052;19;20420;-90
2024/01/21 03:35:09;;;;;;;12.70;8.20;;;;;;;-8.83;100.00;96965.25;7406014;19;20929;-91
2024/01/21 03:37:53;;;;;;;8.43;7.03;;;;;;;-8.52;100.00;97025.59;7405285;19;20373;-90
2024/01/21 03:40:36;;;;;;;8.87;7.20;;;;;;;-9.26;100.00;96923.16;7405290;19;20383;-89
2024/01/21 03:43:20;;;;;;;8.13;6.80;;;;;;;-9.56;100.00;96876.34;7403396;19;20392;-90
2024/01/21 03:46:04;;;;;;;11.27;7.73;;;;;;;-8.93;100.00;96974.78;7404588;19;20440;-90
2024/01/21 03:48:48;;;;;;;13.20;8.17;;;;;;;-8.17;100.00;97052.41;7404710;19;20383;-91
2024/01/21 03:51:31;;;;;;;10.97;8.57;;;;;;;-8.91;100.00;96926.31;7405316;19;20360;-90
2024/01/21 03:54:18;;;;;;;10.77;8.30;;;;;;;-8.74;100.00;97020.22;7403578;19;20411;-91
2024/01/21 03:57:02;;;;;;;13.10;8.17;;;;;;;-8.23;100.00;97048.75;7405213;19;20479;-89
2024/01/21 03:59:46;;;;;;;9.63;7.07;;;;;;;-9.07;100.00;96917.75;7405002;19;20377;-91
2024/01/21 04:02:39;;;;;;;14.13;9.80;;;;;;;-9.80;100.00;96808.56;7404495;19;20512;-90
2024/01/21 04:05:22;;;;;;;9.13;8.07;;;;;;;-9.04;100.00;96937.78;7404428;19;20364;-90
2024/01/21 04:08:07;;;;;;;9.97;6.50;;;;;;;-8.34;100.00;97042.25;7403910;19;20364;-89
2024/01/21 04:10:52;;;;;;;11.97;7.93;;;;;;;-9.03;100.00;96926.66;7402208;19;20671;-90
2024/01/21 04:13:35;;;;;;;11.20;8.00;;;;;;;-8.88;100.00;96957.28;7402345;19;20391;-90
2024/01/21 04:16:19;;;;;;;10.90;8.70;;;;;;;-9.08;100.00;96939.06;7403758;19;20360;-90
2024/01/21 04:19:03;;;;;;;9.53;6.03;;;;;;;-8.96;100.00;96977.66;7403777;19;20418;-91
2024/01/21 04:21:47;;;;;;;9.93;7.90;;;;;;;-9.42;100.00;96880.78;7400796;19;20408;-91
2024/01/21 04:24:31;;;;;;;9.53;8.53;;;;;;;-9.93;100.00;96793.03;7403608;19;20360;-91
2024/01/21 04:27:15;;;;;;;15.20;8.83;;;;;;;-8.99;100.00;96952.53;7404082;19;20834;-91
2024/01/21 04:29:58;;;;;;;10.50;8.53;;;;;;;-9.43;100.00;96891.09;7402181;19;20384;-91
2024/01/21 04:32:42;;;;;;;9.87;8.07;;;;;;;-9.44;100.00;96923.31;7403282;19;20885;-91
2024/01/21 04:35:25;;;;;;;9.37;8.20;;;;;;;-8.31;100.00;97081.06;7402356;19;20483;-91
2024/01/21 04:38:09;;;;;;;14.80;8.60;;;;;;;-8.35;100.00;97070.41;7403815;19;20676;-90
2024/01/21 04:40:53;;;;;;;10.47;7.30;;;;;;;-10.89;100.00;96668.53;7403023;19;20424;-91
2024/01/21 04:43:37;;;;;;;14.17;7.53;;;;;;;-8.78;100.00;96987.66;7401499;19;20426;-91
2024/01/21 04:46:20;;;;;;;8.50;6.33;;;;;;;-8.93;100.00;96973.03;7402657;19;20388;-90
2024/01/21 04:49:04;;;;;;;8.83;7.90;;;;;;;-8.30;100.00;97055.47;7402798;19;20706;-92
2024/01/21 04:51:48;;;;;;;10.97;7.40;;;;;;;-8.23;100.00;97046.22;7403361;19;20361;-90
2024/01/21 04:54:32;;;;;;;8.87;7.40;;;;;;;-9.09;100.00;96904.44;7403161;19;20380;-90
2024/01/21 04:57:16;;;;;;;14.53;9.13;;;;;;;-10.08;100.00;96764.97;7402510;19;20868;-89
2024/01/21 05:00:00;;;;;;;9.03;8.07;;;;;;;-9.84;100.00;96855.53;7402623;19;20360;-91
2024/01/21 05:02:43;;;;;;;10.87;8.30;;;;;;;-9.79;100.00;96883.78;7401900;19;20401;-90
2024/01/21 05:05:27;;;;;;;17.40;10.60;;;;;;;-9.69;100.00;96871.72;7402399;19;20477;-90
2024/01/21 05:08:11;;;;;;;9.40;8.37;;;;;;;-8.50;100.00;97059.28;7402179;19;20860;-91
2024/01/21 05:10:55;;;;;;;12.57;9.17;;;;;;;-8.42;100.00;97054.19;7399921;19;20384;-91
2024/01/21 05:13:39;;;;;;;14.83;12.20;;;;;;;-9.26;100.00;96938.41;7400586;19;20400;-91
2024/01/21 05:16:23;;;;;;;9.57;7.87;;;;;;;-8.56;100.00;97068.38;7402521;19;20383;-91
2024/01/21 05:19:06;;;;;;;15.73;9.97;;;;;;;-8.55;100.00;97043.72;7402299;19;20365;-92
2024/01/21 05:21:51;;;;;;;22.20;13.10;;;;;;;-8.71;100.00;97003.88;7400287;19;20408;-90
2024/01/21 05:24:37;;;;;;;17.50;9.17;;;;;;;-10.17;100.00;96768.47;7401703;19;20373;-90
2024/01/21 05:27:22;;;;;;;29.50;17.17;;;;;;;-9.53;100.00;96863.31;7401223;19;20388;-90
2024/01/21 05:30:08;;;;;;;15.10;9.90;;;;;;;-8.44;100.00;97015.41;7399792;19;20857;-91
2024/01/21 05:32:52;;;;;;;15.60;10.00;;;;;;;-8.53;100.00;97018.91;7400179;19;20428;-90
2024/01/21 05:35:36;;;;;;;10.73;9.53;;;;;;;-8.94;100.00;96957.94;7401068;19;20373;-90
2024/01/21 05:38:20;;;;;;;12.93;8.83;;;;;;;-9.59;100.00;96874.91;7400975;19;20880;-91
2024/01/21 05:41:04;;;;;;;10.73;8.83;;;;;;;-9.33;100.00;96901.91;7401095;19;20360;-91
2024/01/21 05:43:50;;;;;;;10.50;8.37;;;;;;;-9.48;100.00;96878.88;7399556;19;20776;-92
2024/01/21 05:46:34;;;;;;;12.17;8.20;;;;;;;-8.52;100.00;97043.41;7399829;19;20369;-92
2024/01/21 05:49:18;;;;;;;14.40;8.20;;;;;;;-9.00;100.00;96984.00;7399892;19;20977;-90
2024/01/21 05:52:02;;;;;;;12.90;8.60;;;;;;;-8.45;100.00;97034.97;7400859;19;20364;-90
2024/01/21 05:54:49;;;;;;;11.83;7.90;;;;;;;-8.71;100.00;97002.13;7400301;19;20372;-90
2024/01/21 05:57:32;;;;;;;9.57;8.03;;;;;;;-9.00;100.00;96967.00;7400416;19;20372;-90
2024/01/21 06:00:18;;;;;;;11.33;8.70;;;;;;;-8.93;100.00;96990.03;7399747;19;20403;-91
2024/01/21 06:03:02;;;;;;;21.73;8.20;;;;;;;-9.80;100.00;96914.38;7399373;19;20738;-92
2024/01/21 06:05:45;;;;;;;14.23;8.63;;;;;;;-8.74;100.00;97044.84;7400367;19;20688;-90
2024/01/21 06:08:29;;;;;;;11.43;10.23;;;;;;;-9.60;100.00;96923.31;7399858;19;20369;-90
2024/01/21 06:11:14;;;;;;;11.20;8.17;;;;;;;-9.76;100.00;96873.31;7400288;19;20367;-91
2024/01/21 06:13:57;;;;;;;13.40;9.10;;;;;;;-8.64;100.00;97041.16;7398924;19;20412;-90
2024/01/21 06:16:41;;;;;;;11.90;9.63;;;;;;;-9.01;100.00;97018.78;7399694;19;20368;-89
2024/01/21 06:19:25;;;;;;;11.70;8.33;;;;;;;-8.89;100.00;97026.91;7399675;19;20449;-90
2024/01/21 06:22:08;;;;;;;11.13;9.13;;;;;;;-9.05;100.00;96991.31;7399652;19;20409;-91
2024/01/21 06:24:52;;;;;;;11.90;9.73;;;;;;;-8.50;100.00;97052.44;7399357;19;20357;-91
2024/01/21 06:27:36;;;;;;;13.80;10.73;;;;;;;-8.45;100.00;97060.41;7399774;19;20375;-90
2024/01/21 06:30:22;;;;;;;9.43;8.10;;;;;;;-9.05;100.00;96979.41;7399035;19;20365;-91
2024/01/21 06:33:06;;;;;;;16.20;12.40;;;;;;;-8.65;100.00;97033.69;7399272;19;20415;-92
2024/01/21 06:35:50;;;;;;;16.27;12.13;;;;;;;-8.76;100.00;97028.97;7399886;19;20383;-90
2024/01/21 06:38:34;;;;;;;14.67;9.80;;;;;;;-8.35;100.00;97078.81;7399604;19;20841;-91
2024/01/21 06:41:18;;;;;;;19.20;11.20;;;;;;;-9.04;100.00;96978.44;7399353;19;20364;-89
2024/01/21 06:44:02;;;;;;;17.00;12.20;;;;;;;-8.46;100.00;97084.25;7397322;19;20468;-90
2024/01/21 06:46:46;;;;;;;19.83;12.27;;;;;;;-10.21;100.00;96823.78;7399103;19;20364;-90
2024/01/21 06:49:33;;;;;;;15.47;11.20;;;;;;;-8.55;100.00;97092.06;7398206;19;20392;-91
2024/01/21 06:52:17;;;;;;;15.40;13.20;;;;;;;-8.51;100.00;97096.66;7398736;19;20396;-89
2024/01/21 06:55:00;;;;;;;16.80;13.77;;;;;;;-9.96;100.00;96900.75;7399578;19;20661;-91
2024/01/21 06:57:44;;;;;;;19.33;11.90;;;;;;;-8.54;100.00;97104.59;7398809;19;20377;-90
2024/01/21 07:00:27;;;;;;;17.00;10.63;;;;;;;-9.50;100.00;96941.75;7398406;19;20825;-89
2024/01/21 07:03:11;;;;;;;14.37;8.80;;;;;;;-8.85;100.00;97051.06;7397719;19;20396;-91
2024/01/21 07:05:55;;;;;;;17.63;10.03;;;;;;;-9.14;100.00;97000.66;7398717;19;20373;-90
2024/01/21 07:08:40;;;;;;;24.37;11.10;;;;;;;-10.37;100.00;96797.59;7398337;19;20440;-90
2024/01/21 07:11:25;;;;;;;18.30;11.27;;;;;;;-8.50;100.00;97089.81;7398265;19;20396;-88
2024/01/21 07:14:09;;;;;;;15.30;9.80;;;;;;;-9.40;100.00;96955.06;7396638;19;20421;-88
2024/01/21 07:16:53;;;;;;;19.70;9.40;;;;;;;-9.76;100.00;96890.31;7398184;19;20436;-90
2024/01/21 07:19:37;;;;;;;16.40;11.83;;;;;;;-9.01;100.00;96993.38;7398203;19;20364;-89
2024/01/21 07:22:21;;;;;;;15.20;11.93;;;;;;;-8.62;100.00;97092.66;7397888;19;20381;-89
2024/01/21 07:25:06;;;;;;;17.07;10.60;;;;;;;-8.44;100.00;97092.53;7397972;19;20375;-88
2024/01/21 07:27:49;;;;;;;13.27;10.30;;;;;;;-9.07;100.00;96998.31;7398314;19;20377;-88
2024/01/21 07:30:33;;;;;;;11.33;9.77;;;;;;;-8.41;100.00;97083.78;7396814;19;20387;-89
2024/01/21 07:33:17;;;;;;;17.87;12.13;;;;;;;-8.27;100.00;97090.75;7396337;19;20404;-88
2024/01/21 07:36:03;;;;;;;19.17;13.13;;;;;;;-9.53;100.00;96899.66;7397983;19;20904;-90
2024/01/21 07:38:46;;;;;;;18.93;9.93;;;;;;;-8.16;100.00;97094.72;7397573;19;20365;-89
2024/01/21 07:41:30;;;;;;;26.23;16.50;;;;;;;-9.28;100.00;96941.09;7397338;19;20367;-89
2024/01/21 07:44:13;;;;;;;29.33;15.90;;;;;;;-8.24;100.00;97087.09;7395828;19;20396;-88
2024/01/21 07:46:57;;;;;;;25.40;14.43;;;;;;;-8.10;100.00;97082.13;7397108;19;20426;-89
2024/01/21 07:49:41;;;;;;;24.30;16.23;;;;;;;-8.47;100.00;97010.63;7396253;19;20381;-88
2024/01/21 07:52:24;;;;;;;25.93;14.83;;;;;;;-7.70;100.00;97098.28;7396506;19;20408;-89
2024/01/21 07:55:09;;;;;;;18.57;13.80;;;;;;;-7.95;100.00;97022.91;7396652;19;20849;-88
2024/01/21 07:57:52;;;;;;;11.97;9.80;;;;;;;-7.31;100.00;97100.03;7397482;19;20673;-89
2024/01/21 08:00:36;;;;;;;15.37;11.17;;;;;;;-7.17;100.00;97109.50;7397318;19;20833;-89
2024/01/21 08:03:19;;;;;;;17.00;11.40;;;;;;;-7.01;100.00;97106.84;7395423;19;20404;-88
2024/01/21 08:06:04;;;;;;;13.30;9.97;;;;;;;-6.98;100.00;97106.53;7396470;19;20360;-88
2024/01/21 08:08:48;;;;;;;20.83;13.90;;;;;;;-8.09;100.00;96927.63;7396896;19;20365;-89
2024/01/21 08:11:32;;;;;;;15.20;11.53;;;;;;;-8.05;100.00;96911.88;7401616;19;20382;-88
2024/01/21 08:14:15;;;;;;;14.73;11.57;;;;;;;-7.35;100.00;97014.69;7401596;19;20400;-89
2024/01/21 08:16:59;;;;;;;19.87;13.03;;;;;;;-6.60;100.00;97101.50;7404343;19;20392;-87
2024/01/21 08:19:42;;;;;;;18.00;11.67;;;;;;;-6.50;100.00;97098.72;7403520;19;20485;-89
2024/01/21 08:22:25;;;;;;;14.23;9.50;;;;;;;-6.75;100.00;97049.63;7403601;19;20408;-89
2024/01/21 08:25:11;;;;;;;16.80;11.70;;;;;;;-6.80;100.00;97078.19;7404436;19;20395;-89
2024/01/21 08:27:54;;;;;;;15.00;11.67;;;;;;;-6.40;100.00;97099.28;7403871;19;20379;-89
2024/01/21 08:30:37;;;;;;;17.70;12.47;;;;;;;-6.47;100.00;97065.97;7401987;19;20377;-88
2024/01/21 08:33:21;;;;;;;27.63;15.83;;;;;;;-6.38;100.00;97077.72;7402361;19;20427;-88
2024/01/21 08:36:06;;;;;;;26.83;14.73;;;;;;;-8.37;100.00;96756.78;7403694;19;20377;-88
2024/01/21 08:38:51;;;;;;;26.63;17.37;;;;;;;-6.34;100.00;97045.75;7403339;19;20365;-88
2024/01/21 08:41:35;;;;;;;31.73;17.90;;;;;;;-5.91;100.00;97083.53;7403189;19;20364;-89
2024/01/21 08:44:19;;;;;;;28.77;16.57;;;;;;;-7.25;100.00;96829.94;7400258;19;20416;-88
2024/01/21 08:47:02;;;;;;;27.30;17.60;;;;;;;-5.72;100.00;97039.53;7403115;19;20432;-89
2024/01/21 08:49:46;;;;;;;19.37;11.60;;;;;;;-6.67;100.00;96886.25;7401848;19;20394;-89
2024/01/21 08:52:30;;;;;;;15.63;10.20;;;;;;;-5.18;100.00;97083.44;7401968;19;20412;-88
2024/01/21 08:55:14;;;;;;;11.97;8.70;;;;;;;-5.75;100.00;96961.47;7402070;19;20405;-89
2024/01/21 08:57:57;;;;;;;10.80;7.93;;;;;;;-4.99;100.00;97051.34;7402790;19;20372;-89
2024/01/21 09:00:42;;;;;;;17.63;9.93;;;;;;;-4.57;100.00;97065.94;7403289;19;20368;-89
2024/01/21 09:03:26;;;;;;;12.10;9.80;;;;;;;-4.31;100.00;97049.16;7400650;19;20419;-88
2024/01/21 09:06:11;;;;;;;15.77;10.33;;;;;;;-4.87;100.00;96918.56;7402309;19;20364;-88
2024/01/21 09:08:56;;;;;;;14.63;8.73;;;;;;;-3.86;100.00;97050.47;7401683;19;20368;-88
2024/01/21 09:11:40;;;;;;;11.70;9.43;;;;;;;-3.85;100.00;97042.59;7402220;19;20369;-88
2024/01/21 09:14:24;;;;;;;13.13;11.57;;;;;;;-3.73;100.00;97016.38;7399985;19;20424;-89
2024/01/21 09:17:08;;;;;;;14.47;8.63;;;;;;;-3.53;100.00;97045.47;7401592;19;20360;-89
2024/01/21 09:19:51;;;;;;;9.17;7.10;;;;;;;-3.58;100.00;97015.25;7401480;19;20369;-89
2024/01/21 09:22:35;;;;;;;15.67;9.47;;;;;;;-3.75;100.00;96960.16;7401058;19;20970;-90
2024/01/21 09:25:19;;;;;;;12.27;9.33;;;;;;;-3.96;100.00;96914.94;7401986;19;20365;-89
2024/01/21 09:28:05;;;;;;;16.17;9.77;;;;;;;-3.01;100.00;97033.78;7401518;19;20369;-89
2024/01/21 09:30:48;;;;;;;11.90;9.40;;;;;;;-2.71;100.00;97029.09;7399812;19;20452;-89
2024/01/21 09:33:32;;;;;;;15.10;10.73;;;;;;;-3.02;100.00;96957.78;7399809;19;20416;-88
2024/01/21 09:36:16;;;;;;;10.80;9.70;;;;;;;-2.13;100.00;97068.66;7401056;19;20367;-89
2024/01/21 09:39:00;;;;;;;15.10;10.03;;;;;;;-3.60;100.00;96870.25;7401229;19;20373;-88
2024/01/21 09:41:51;;;;;;;12.20;9.50;;;;;;;-2.22;100.00;97069.84;7403401;19;20368;-94
2024/01/21 09:44:38;;;;;;;15.20;12.13;;;;;;;-1.86;100.00;97063.50;7405896;19;20369;-93
2024/01/21 09:47:43;;;;;;;13.10;10.10;;;;;;;-2.42;100.00;97020.25;7403532;19;20395;-94
2024/01/21 09:50:27;;;;;;;28.03;21.00;;;;;;;-1.67;100.00;97070.38;7403311;19;20707;-93
2024/01/21 09:53:11;;;;;;;20.10;13.27;;;;;;;-1.94;100.00;97025.91;7404002;19;20416;-93
2024/01/21 09:56:04;;;;;;;13.90;9.93;;;;;;;-2.09;100.00;97013.28;7402494;19;20447;-94
2024/01/21 09:58:53;;;;;;;12.43;8.60;;;;;;;-2.74;100.00;96901.06;7402303;19;20687;-92
2024/01/21 10:01:41;;;;;;;15.60;11.07;;;;;;;-1.92;100.00;96975.03;7401641;19;20357;-93
2024/01/21 10:04:25;;;;;;;14.93;9.00;;;;;;;-1.51;100.00;97036.50;7400342;19;20413;-94
2024/01/21 10:07:10;;;;;;;15.30;11.33;;;;;;;-2.37;100.00;96871.38;7402213;19;20678;-93
2024/01/21 10:09:57;;;;;;;13.57;10.00;;;;;;;-3.35;100.00;96714.00;7401275;19;20864;-93
2024/01/21 10:12:42;;;;;;;14.40;10.67;;;;;;;-1.43;100.00;97014.06;7401945;19;20890;-94
2024/01/21 10:15:25;;;;;;;13.50;9.37;;;;;;;-1.36;100.00;97001.94;7402343;19;20361;-93
2024/01/21 10:18:09;;;;;;;15.87;10.27;;;;;;;-0.94;100.00;97029.66;7402174;19;20399;-93
2024/01/21 10:20:53;;;;;;;12.80;10.30;;;;;;;-1.30;100.00;96990.81;7400445;19;20710;-92
2024/01/21 10:23:36;;;;;;;12.37;9.53;;;;;;;-2.15;100.00;96839.28;7399776;19;20400;-93
2024/01/21 10:26:20;;;;;;;16.83;11.53;;;;;;;-1.96;100.00;96868.44;7401086;19;20364;-93
2024/01/21 10:29:03;;;;;;;19.60;12.80;;;;;;;-1.29;100.00;96933.97;7400811;19;20421;-92
2024/01/21 10:31:48;;;;;;;14.13;11.23;;;;;;;-0.38;100.00;97041.75;7400696;19;20534;-92
2024/01/21 10:34:31;;;;;;;11.20;9.90;;;;;;;-2.36;100.00;96767.56;7399739;19;20365;-92
2024/01/21 10:37:16;;;;;;;13.03;10.03;;;;;;;-0.47;100.00;97083.47;7400079;19;20373;-91
2024/01/21 10:40:02;;;;;;;10.43;8.93;;;;;;;-1.82;100.00;96853.75;7400860;19;20392;-92
2024/01/21 10:42:53;;;;;;;16.03;11.43;;;;;;;-1.95;100.00;96836.59;7400802;19;20399;-92
2024/01/21 10:45:36;;;;;;;14.40;10.63;;;;;;;-0.18;100.00;97082.06;7400808;19;20689;-92
2024/01/21 10:48:22;;;;;;;16.20;9.27;;;;;;;-1.34;100.00;96887.47;7400315;19;20379;-92
2024/01/21 10:51:07;;;;;;;16.80;12.07;;;;;;;-1.00;100.00;96864.84;7402049;19;20389;-92
2024/01/21 10:53:54;;;;;;;11.43;9.53;;;;;;;0.15;100.00;97056.00;7399112;19;20408;-92
2024/01/21 10:56:38;;;;;;;20.07;15.30;;;;;;;0.38;100.00;97060.56;7400534;19;20385;-92
2024/01/21 10:59:22;;;;;;;15.33;11.47;;;;;;;0.50;100.00;97082.06;7400206;19;20384;-91
2024/01/21 11:02:06;;;;;;;11.73;9.67;;;;;;;-0.13;100.00;97015.97;7400731;19;20688;-91
2024/01/21 11:04:49;;;;;;;21.63;10.33;;;;;;;-0.57;100.00;96921.56;7400870;19;20385;-92
2024/01/21 11:07:33;;;;;;;14.10;9.57;;;;;;;-0.42;100.00;96931.53;7399806;19;20440;-92
2024/01/21 11:10:18;;;;;;;19.80;12.00;;;;;;;0.71;100.00;97080.84;7398890;19;20373;-90
2024/01/21 11:13:03;;;;;;;16.63;11.30;;;;;;;-0.07;100.00;96957.56;7398689;19;20402;-92
2024/01/21 11:15:49;;;;;;;10.27;9.23;;;;;;;0.23;100.00;97006.69;7399212;19;20481;-92
2024/01/21 11:18:33;;;;;;;14.53;9.27;;;;;;;0.82;100.00;97077.53;7399483;19;20743;-91
2024/01/21 11:21:21;;;;;;;12.23;9.87;;;;;;;-0.46;100.00;96881.38;7397444;19;20408;-91
2024/01/21 11:24:20;;;;;;;;;;;;;;;;;;;;;
2024/01/21 11:27:07;;;;;;;20.20;17.10;;;;;;;0.90;100.00;97074.66;7397697;19;20403;-88
2024/01/21 11:30:11;;;;;;;16.00;11.30;;;;;;;0.77;100.00;97069.66;7395544;19;20405;-87
2024/01/21 11:32:59;;;;;;;14.70;11.30;;;;;;;0.54;100.00;97065.13;7397111;19;20904;-88
2024/01/21 11:35:44;;;;;;;11.67;9.23;;;;;;;0.62;100.00;97067.41;7397861;19;20412;-88
2024/01/21 11:38:29;;;;;;;12.53;10.53;;;;;;;1.04;100.00;97070.91;7397682;19;20833;-88
2024/01/21 11:41:13;;;;;;;11.50;9.00;;;;;;;1.14;100.00;97065.19;7397323;19;20357;-88
2024/01/21 11:43:56;;;;;;;10.80;8.47;;;;;;;0.85;100.00;96991.84;7396216;19;20732;-87
2024/01/21 11:46:42;;;;;;;11.63;7.97;;;;;;;0.97;100.00;96978.97;7403033;19;20432;-88
2024/01/21 11:49:26;;;;;;;16.80;11.83;;;;;;;1.66;100.00;97086.16;7404488;19;20389;-88
2024/01/21 11:52:10;;;;;;;10.23;9.23;;;;;;;0.84;100.00;96959.25;7405479;19;20364;-90
2024/01/21 11:54:54;;;;;;;10.83;8.13;;;;;;;1.73;100.00;97086.88;7404848;19;20360;-90
2024/01/21 11:57:37;;;;;;;19.00;13.77;;;;;;;1.82;100.00;97093.28;7404473;19;20371;-90
2024/01/21 12:00:21;;;;;;;10.43;8.90;;;;;;;1.68;100.00;97079.75;7405024;19;20378;-89
2024/01/21 12:03:05;;;;;;;12.43;10.03;;;;;;;1.63;100.00;97084.03;7403618;19;20407;-89
2024/01/21 12:05:49;;;;;;;12.47;10.20;;;;;;;1.51;100.00;97073.66;7404737;19;20396;-90
2024/01/21 12:08:33;;;;;;;13.53;10.33;;;;;;;1.50;100.00;97085.00;7404524;19;20917;-90
2024/01/21 12:11:16;;;;;;;10.73;8.30;;;;;;;1.61;100.00;97088.63;7402054;19;20393;-90
2024/01/21 12:14:00;;;;;;;11.30;9.50;;;;;;;1.67;100.00;97085.94;7402110;19;20892;-89
2024/01/21 12:16:44;;;;;;;15.70;10.73;;;;;;;1.32;100.00;97000.53;7404522;19;20396;-90
2024/01/21 12:19:28;;;;;;;16.00;12.73;;;;;;;1.92;100.00;97066.84;7404515;19;20743;-90
2024/01/21 12:22:11;;;;;;;16.93;11.77;;;;;;;2.02;100.00;97042.00;7404100;19;20364;-90
2024/01/21 12:24:55;;;;;;;12.93;9.80;;;;;;;2.18;100.00;97040.53;7404409;19;20360;-89
2024/01/21 12:27:45;;;;;;;13.37;9.87;;;;;;;2.17;100.00;97069.22;7403664;19;20379;-90
2024/01/21 12:30:29;;;;;;;14.40;10.93;;;;;;;1.95;100.00;97043.09;7402355;19;20373;-90
2024/01/21 12:33:12;;;;;;;13.00;10.23;;;;;;;2.11;100.00;97083.88;7402401;19;20396;-90
2024/01/21 12:35:56;;;;;;;15.60;10.00;;;;;;;2.02;100.00;97087.81;7403444;19;20365;-90